Arlee, Montana
Current Conditions -  °F | °C
As of 5:53 AM on Wednesday 26 Nov 2014 (Local Time) from KMSO Reporting Station
Light Snow Light Snow  
Wind Chill: -1°   Ceiling: 400
Heat Index: -1°   Visibility: 2mi
Dew Point: -1°   Wind: 0mph
Humidity: 100%   Direction: NA
Pressure: 30.15"   Gusts: NA
Location:  47.16°N, 114.09°W
Report Text: KMSO 261253Z AUTO 00000KT 2SM -SN BR BKN004 OVC038 M01/M01 A3015 RMK AO2 SLP236 P0001 T10061006 $
Loading
Personal Weather Stations






























Interactive Weather Map New forecast layout! Learn more

10-Day Weather Forecast

Advertisements
Track Severe Weather on mobile